createdAt,value
2023-01-17T00:00:03.595Z,72.80
2023-01-17T00:02:31.304Z,72.80
2023-01-17T00:05:16.903Z,73.50
2023-01-17T00:08:02.523Z,73.50
2023-01-17T00:10:29.260Z,73.80
2023-01-17T00:12:57.446Z,73.70
2023-01-17T00:15:24.928Z,73.50
2023-01-17T00:17:52.088Z,73.50
2023-01-17T00:20:39.396Z,73.60
2023-01-17T00:23:26.148Z,73.80
2023-01-17T00:26:05.605Z,73.90
2023-01-17T00:28:33.953Z,73.80
2023-01-17T00:31:00.864Z,74.00
2023-01-17T00:33:27.968Z,74.00
2023-01-17T00:35:56.247Z,74.10
2023-01-17T00:38:24.048Z,74.10
2023-01-17T00:40:50.735Z,74.30
2023-01-17T00:43:37.171Z,74.10
2023-01-17T00:46:22.990Z,74.10
2023-01-17T00:49:08.758Z,74.10
2023-01-17T00:51:54.465Z,74.10
2023-01-17T00:54:39.628Z,74.20
2023-01-17T00:57:25.130Z,74.00
2023-01-17T01:00:10.594Z,74.50
2023-01-17T01:02:56.467Z,74.00
2023-01-17T01:05:41.672Z,74.20
2023-01-17T01:08:40.958Z,74.10
2023-01-17T01:11:27.349Z,74.00
2023-01-17T01:14:12.509Z,73.90
2023-01-17T01:16:58.288Z,73.80
2023-01-17T01:19:43.507Z,73.60
2023-01-17T01:22:29.015Z,73.50
2023-01-17T01:25:14.199Z,73.50
2023-01-17T01:27:59.314Z,73.40
2023-01-17T01:30:44.776Z,73.40
2023-01-17T01:33:21.188Z,73.40
2023-01-17T01:35:49.484Z,73.20
2023-01-17T01:38:16.765Z,73.20
2023-01-17T01:40:44.324Z,73.20
2023-01-17T01:43:12.351Z,73.20
2023-01-17T01:45:39.547Z,73.30
2023-01-17T01:48:11.667Z,73.10
2023-01-17T01:50:38.841Z,73.00
2023-01-17T01:53:06.099Z,73.00
2023-01-17T01:55:40.094Z,72.90
2023-01-17T01:58:10.916Z,72.70
2023-01-17T02:00:38.794Z,72.80
2023-01-17T02:03:06.948Z,72.70
2023-01-17T02:05:34.133Z,72.70
2023-01-17T02:08:07.779Z,72.70
2023-01-17T02:10:39.216Z,72.70
2023-01-17T02:13:06.614Z,72.60
2023-01-17T02:15:52.312Z,72.60
2023-01-17T02:18:29.338Z,72.60
2023-01-17T02:21:28.444Z,72.60
2023-01-17T02:24:13.727Z,72.60
2023-01-17T02:26:56.019Z,72.50
2023-01-17T02:29:41.312Z,72.50
2023-01-17T02:32:08.007Z,72.50
2023-01-17T02:34:40.919Z,72.40
2023-01-17T02:37:10.437Z,72.40
2023-01-17T02:39:43.867Z,72.30
2023-01-17T02:42:12.792Z,72.30
2023-01-17T02:44:41.017Z,72.30
2023-01-17T02:47:27.245Z,72.20
2023-01-17T02:49:56.317Z,72.30
2023-01-17T02:52:28.807Z,72.20
2023-01-17T02:55:10.517Z,72.20
2023-01-17T02:57:42.969Z,72.30
2023-01-17T03:00:15.710Z,72.10
2023-01-17T03:03:00.109Z,72.10
2023-01-17T03:05:26.820Z,72.10
2023-01-17T03:07:54.394Z,72.10
2023-01-17T03:10:21.890Z,71.90
2023-01-17T03:12:48.620Z,72.00
2023-01-17T03:15:17.613Z,71.90
2023-01-17T03:17:46.763Z,72.00
2023-01-17T03:20:13.545Z,72.00
2023-01-17T03:22:40.309Z,71.90
2023-01-17T03:25:07.133Z,71.90
2023-01-17T03:27:33.878Z,71.70
2023-01-17T03:30:01.858Z,71.70
2023-01-17T03:32:28.669Z,71.60
2023-01-17T03:34:55.704Z,71.70
2023-01-17T03:37:22.492Z,71.70
2023-01-17T03:39:49.233Z,71.80
2023-01-17T03:42:15.925Z,71.80
2023-01-17T03:44:42.737Z,71.80
2023-01-17T03:47:12.279Z,71.80
2023-01-17T03:49:40.018Z,71.80
2023-01-17T03:52:07.225Z,71.80
2023-01-17T03:54:33.992Z,71.80
2023-01-17T03:57:00.765Z,71.60
2023-01-17T03:59:27.593Z,71.60
2023-01-17T04:01:54.395Z,71.50
2023-01-17T04:04:21.220Z,71.70
2023-01-17T04:06:48.381Z,71.60
2023-01-17T04:09:15.174Z,71.50
2023-01-17T04:11:41.914Z,71.60
2023-01-17T04:14:08.607Z,71.60
2023-01-17T04:16:36.793Z,71.50
2023-01-17T04:19:03.599Z,71.50
2023-01-17T04:21:30.425Z,71.40
2023-01-17T04:23:57.132Z,71.40
2023-01-17T04:26:23.842Z,71.30
2023-01-17T04:28:50.617Z,71.20
2023-01-17T04:31:17.699Z,71.30
2023-01-17T04:33:44.489Z,71.40
2023-01-17T04:36:11.251Z,71.30
2023-01-17T04:38:37.971Z,71.40
2023-01-17T04:41:04.752Z,71.20
2023-01-17T04:43:31.504Z,71.20
2023-01-17T04:45:58.856Z,71.00
2023-01-17T04:48:26.293Z,71.00
2023-01-17T04:50:59.112Z,71.00
2023-01-17T04:53:26.161Z,70.90
2023-01-17T04:55:52.930Z,70.90
2023-01-17T04:58:20.006Z,70.90
2023-01-17T05:00:50.899Z,70.80
2023-01-17T05:03:18.487Z,70.80
2023-01-17T05:05:45.235Z,70.90
2023-01-17T05:08:12.137Z,70.90
2023-01-17T05:10:38.905Z,70.90
2023-01-17T05:13:05.663Z,70.90
2023-01-17T05:15:32.544Z,70.90
2023-01-17T05:17:59.253Z,70.90
2023-01-17T05:20:26.693Z,71.40
2023-01-17T05:22:57.041Z,71.40
2023-01-17T05:25:24.646Z,71.40
2023-01-17T05:27:51.582Z,71.40
2023-01-17T05:30:18.910Z,71.40
2023-01-17T05:32:52.478Z,71.40
2023-01-17T05:35:20.159Z,71.60
2023-01-17T05:37:49.277Z,71.80
2023-01-17T05:40:16.955Z,71.80
2023-01-17T05:42:47.346Z,72.00
2023-01-17T05:45:16.979Z,72.10
2023-01-17T05:47:44.343Z,72.20
2023-01-17T05:50:12.116Z,72.20
2023-01-17T05:52:38.893Z,72.30
2023-01-17T05:55:07.494Z,72.40
2023-01-17T05:57:34.919Z,72.30
2023-01-17T06:00:01.729Z,72.30
2023-01-17T06:02:28.529Z,72.40
2023-01-17T06:04:55.344Z,72.50
2023-01-17T06:07:22.111Z,72.50
2023-01-17T06:09:48.808Z,72.60
2023-01-17T06:12:15.536Z,72.60
2023-01-17T06:14:42.261Z,72.70
2023-01-17T06:17:08.987Z,73.40
2023-01-17T06:19:35.702Z,72.80
2023-01-17T06:22:03.863Z,72.90
2023-01-17T06:24:31.070Z,72.80
2023-01-17T06:26:57.889Z,73.00
2023-01-17T06:29:24.705Z,73.00
2023-01-17T06:31:51.615Z,73.00
2023-01-17T06:34:18.319Z,73.20
2023-01-17T06:36:45.023Z,73.20
2023-01-17T06:39:14.797Z,73.10
2023-01-17T06:41:41.770Z,73.20
2023-01-17T06:44:09.388Z,73.20
2023-01-17T06:46:36.143Z,73.30
2023-01-17T06:49:02.927Z,73.50
2023-01-17T06:51:29.655Z,73.60
2023-01-17T06:53:56.401Z,73.50
2023-01-17T06:56:23.136Z,73.60
2023-01-17T06:58:50.742Z,73.60
2023-01-17T07:01:18.520Z,73.80
2023-01-17T07:03:45.312Z,73.90
2023-01-17T07:06:12.035Z,74.00
2023-01-17T07:08:38.804Z,74.10
2023-01-17T07:11:08.019Z,74.00
2023-01-17T07:13:36.520Z,74.10
2023-01-17T07:16:04.114Z,74.30
2023-01-17T07:18:31.375Z,74.30
2023-01-17T07:20:58.260Z,74.30
2023-01-17T07:23:25.260Z,74.30
2023-01-17T07:25:55.511Z,74.50
2023-01-17T07:28:22.317Z,74.30
2023-01-17T07:30:49.121Z,74.50
2023-01-17T07:33:15.924Z,74.40
2023-01-17T07:35:42.761Z,74.40
2023-01-17T07:38:13.743Z,74.50
2023-01-17T07:40:42.321Z,74.50
2023-01-17T07:43:15.579Z,74.40
2023-01-17T07:45:47.062Z,74.50
2023-01-17T07:48:13.837Z,74.50
2023-01-17T07:50:40.611Z,74.50
2023-01-17T07:53:07.313Z,74.50
2023-01-17T07:55:34.108Z,74.60
2023-01-17T07:58:02.934Z,74.70
2023-01-17T08:00:30.162Z,74.60
2023-01-17T08:02:57.927Z,74.70
2023-01-17T08:05:25.076Z,74.70
2023-01-17T08:07:51.838Z,74.70
2023-01-17T08:10:18.762Z,74.80
2023-01-17T08:12:49.322Z,75.30
2023-01-17T08:15:16.869Z,74.80
2023-01-17T08:17:53.300Z,74.80
2023-01-17T08:20:20.900Z,75.00
2023-01-17T08:22:47.626Z,75.00
2023-01-17T08:25:14.389Z,75.00
2023-01-17T08:27:41.069Z,75.20
2023-01-17T08:30:08.070Z,75.00
2023-01-17T08:32:34.805Z,74.20
2023-01-17T08:35:01.642Z,73.50
2023-01-17T08:37:28.560Z,72.70
2023-01-17T08:39:55.247Z,71.80
2023-01-17T08:42:21.937Z,72.00
2023-01-17T08:44:48.681Z,71.90
2023-01-17T08:47:15.382Z,71.90
2023-01-17T08:49:42.076Z,71.80
2023-01-17T08:52:08.785Z,71.40
2023-01-17T08:54:35.500Z,71.20
2023-01-17T08:57:03.921Z,71.10
2023-01-17T08:59:30.625Z,70.80
2023-01-17T09:01:58.909Z,70.30
2023-01-17T09:04:25.758Z,70.10
2023-01-17T09:06:52.595Z,69.80
2023-01-17T09:09:19.341Z,69.60
2023-01-17T09:11:46.059Z,69.20
2023-01-17T09:14:13.015Z,69.10
2023-01-17T09:16:39.831Z,68.90
2023-01-17T09:19:06.579Z,68.70
2023-01-17T09:21:33.327Z,68.60
2023-01-17T09:24:00.045Z,68.30
2023-01-17T09:26:30.032Z,68.10
2023-01-17T09:28:56.918Z,68.00
2023-01-17T09:31:23.912Z,68.00
2023-01-17T09:33:51.871Z,67.90
2023-01-17T09:36:18.655Z,67.70
2023-01-17T09:38:45.464Z,67.60
2023-01-17T09:41:32.508Z,67.60
2023-01-17T09:43:59.216Z,67.50
2023-01-17T09:46:28.320Z,67.40
2023-01-17T09:49:08.787Z,67.30
2023-01-17T09:51:36.222Z,67.20
2023-01-17T09:54:02.960Z,67.10
2023-01-17T09:56:35.806Z,67.10
2023-01-17T09:59:10.788Z,67.00
2023-01-17T10:01:46.874Z,66.70
2023-01-17T10:04:26.059Z,66.60
2023-01-17T10:07:04.734Z,66.30
2023-01-17T10:09:31.423Z,66.00
2023-01-17T10:12:00.897Z,65.80
2023-01-17T10:14:33.532Z,65.60
2023-01-17T10:17:19.033Z,65.40
2023-01-17T10:19:45.805Z,65.30
2023-01-17T10:22:15.679Z,65.30
2023-01-17T10:25:00.831Z,64.90
2023-01-17T10:27:32.388Z,64.90
2023-01-17T10:30:00.043Z,64.70
2023-01-17T10:32:28.822Z,64.60
2023-01-17T10:34:55.592Z,64.60
2023-01-17T10:37:22.339Z,64.60
2023-01-17T10:39:50.322Z,64.50
2023-01-17T10:42:20.622Z,64.50
2023-01-17T10:44:53.384Z,64.50
2023-01-17T10:47:21.477Z,64.30
2023-01-17T10:49:49.669Z,64.30
2023-01-17T10:52:16.736Z,64.20
2023-01-17T10:54:46.498Z,64.10
2023-01-17T10:57:19.856Z,64.10
2023-01-17T10:59:46.601Z,64.00
2023-01-17T11:02:19.069Z,64.00
2023-01-17T11:04:47.467Z,64.00
2023-01-17T11:07:15.995Z,64.20
2023-01-17T11:09:43.875Z,64.30
2023-01-17T11:12:36.688Z,64.30
2023-01-17T11:15:06.114Z,64.50
2023-01-17T11:17:33.917Z,64.60
2023-01-17T11:20:27.216Z,64.50
2023-01-17T11:23:23.361Z,64.80
2023-01-17T11:25:52.133Z,65.00
2023-01-17T11:28:23.774Z,65.10
2023-01-17T11:30:51.594Z,65.40
2023-01-17T11:33:30.824Z,65.20
2023-01-17T11:35:58.443Z,65.00
2023-01-17T11:38:25.328Z,64.70
2023-01-17T11:40:54.060Z,64.50
2023-01-17T11:43:20.785Z,64.40
2023-01-17T11:46:00.950Z,64.20
2023-01-17T11:48:32.452Z,64.10
2023-01-17T11:51:00.273Z,64.10
2023-01-17T11:53:34.343Z,64.00
2023-01-17T11:56:01.042Z,64.00
2023-01-17T11:58:28.429Z,64.00
2023-01-17T12:01:00.241Z,64.10
2023-01-17T12:03:32.983Z,64.00
2023-01-17T12:06:02.792Z,64.10
2023-01-17T12:08:51.378Z,64.10
2023-01-17T12:12:00.417Z,64.30
2023-01-17T12:14:35.477Z,64.30
2023-01-17T12:17:08.475Z,64.40
2023-01-17T12:19:36.674Z,64.30
2023-01-17T12:22:13.074Z,64.60
2023-01-17T12:24:58.789Z,64.50
2023-01-17T12:27:47.701Z,64.50
2023-01-17T12:30:30.927Z,64.50
2023-01-17T12:33:03.539Z,64.70
2023-01-17T12:35:39.567Z,64.70
2023-01-17T12:38:08.509Z,64.80
2023-01-17T12:40:45.139Z,64.90
2023-01-17T12:43:18.259Z,64.90
2023-01-17T12:45:46.992Z,65.00
2023-01-17T12:48:17.694Z,65.00
2023-01-17T12:50:51.209Z,65.00
2023-01-17T12:53:18.295Z,65.00
2023-01-17T12:56:00.457Z,65.10
2023-01-17T12:58:29.834Z,65.20
2023-01-17T13:01:02.885Z,65.10
2023-01-17T13:03:29.669Z,65.20
2023-01-17T13:05:57.534Z,65.20
2023-01-17T13:08:39.089Z,65.20
2023-01-17T13:11:11.916Z,65.20
2023-01-17T13:13:41.321Z,65.80
2023-01-17T13:16:13.337Z,65.20
2023-01-17T13:18:47.535Z,65.20
2023-01-17T13:21:20.375Z,65.20
2023-01-17T13:23:49.918Z,65.20
2023-01-17T13:26:25.720Z,65.30
2023-01-17T13:28:58.977Z,65.30
2023-01-17T13:31:44.677Z,65.40
2023-01-17T13:34:19.759Z,65.40
2023-01-17T13:37:14.418Z,65.40
2023-01-17T13:39:52.068Z,65.50
2023-01-17T13:42:24.793Z,65.50
2023-01-17T13:44:51.740Z,65.60
2023-01-17T13:47:18.455Z,65.60
2023-01-17T13:49:45.280Z,65.60
2023-01-17T13:52:12.287Z,65.60
2023-01-17T13:55:05.332Z,65.60
2023-01-17T13:57:34.748Z,65.50
2023-01-17T14:00:16.404Z,65.40
2023-01-17T14:02:43.580Z,65.50
2023-01-17T14:05:12.005Z,65.50
2023-01-17T14:07:43.735Z,65.50
2023-01-17T14:10:29.350Z,65.50
2023-01-17T14:12:56.530Z,65.50
2023-01-17T14:15:27.156Z,65.50
2023-01-17T14:18:04.004Z,65.50
2023-01-17T14:20:37.248Z,65.50
2023-01-17T14:23:23.271Z,65.50
2023-01-17T14:25:50.679Z,65.50
2023-01-17T14:28:26.573Z,65.60
2023-01-17T14:30:56.078Z,65.70
2023-01-17T14:33:30.706Z,65.70
2023-01-17T14:35:58.988Z,66.30
2023-01-17T14:38:27.249Z,66.50
2023-01-17T14:41:02.424Z,66.30
2023-01-17T14:43:32.418Z,66.80
2023-01-17T14:46:00.662Z,66.20
2023-01-17T14:48:28.321Z,66.10
2023-01-17T14:50:57.484Z,66.00
2023-01-17T14:53:27.981Z,66.00
2023-01-17T14:55:59.219Z,66.00
2023-01-17T14:58:33.229Z,66.00
2023-01-17T15:01:17.517Z,66.00
2023-01-17T15:03:50.492Z,66.00
2023-01-17T15:06:18.877Z,66.00
2023-01-17T15:08:45.803Z,66.00
2023-01-17T15:11:21.870Z,65.90
2023-01-17T15:13:49.921Z,66.00
2023-01-17T15:16:18.991Z,65.90
2023-01-17T15:18:46.443Z,65.90
2023-01-17T15:21:16.262Z,65.90
2023-01-17T15:23:44.495Z,65.80
2023-01-17T15:26:13.508Z,65.80
2023-01-17T15:28:40.781Z,65.80
2023-01-17T15:31:13.595Z,65.80
2023-01-17T15:33:42.262Z,65.70
2023-01-17T15:36:11.878Z,65.70
2023-01-17T15:38:40.587Z,65.60
2023-01-17T15:41:10.084Z,65.60
2023-01-17T15:43:38.101Z,65.60
2023-01-17T15:46:05.099Z,65.50
2023-01-17T15:48:40.728Z,65.50
2023-01-17T15:51:08.150Z,65.60
2023-01-17T15:53:39.700Z,65.50
2023-01-17T15:56:19.787Z,65.50
2023-01-17T15:58:50.341Z,65.50
2023-01-17T16:01:18.090Z,65.50
2023-01-17T16:03:54.779Z,65.40
2023-01-17T16:06:30.099Z,65.40
2023-01-17T16:08:56.851Z,65.40
2023-01-17T16:11:23.555Z,65.40
2023-01-17T16:13:50.431Z,65.40
2023-01-17T16:16:17.379Z,65.30
2023-01-17T16:18:44.781Z,65.30
2023-01-17T16:21:18.745Z,65.30
2023-01-17T16:23:45.853Z,65.20
2023-01-17T16:26:12.676Z,65.20
2023-01-17T16:28:39.402Z,65.20
2023-01-17T16:31:06.262Z,65.20
2023-01-17T16:33:33.071Z,65.80
2023-01-17T16:35:59.752Z,65.30
2023-01-17T16:38:26.441Z,65.20
2023-01-17T16:40:54.114Z,65.20
2023-01-17T16:43:20.963Z,65.30
2023-01-17T16:45:50.507Z,65.20
2023-01-17T16:48:19.166Z,65.30
2023-01-17T16:50:53.361Z,65.30
2023-01-17T16:53:24.343Z,65.30
2023-01-17T16:55:52.593Z,65.30
2023-01-17T16:58:20.468Z,65.30
2023-01-17T17:00:47.597Z,65.30
2023-01-17T17:03:18.370Z,65.30
2023-01-17T17:05:47.174Z,65.40
2023-01-17T17:08:15.485Z,65.30
2023-01-17T17:10:42.251Z,65.30
2023-01-17T17:13:09.057Z,65.30
2023-01-17T17:15:40.393Z,65.30
2023-01-17T17:18:07.128Z,65.30
2023-01-17T17:20:33.807Z,65.20
2023-01-17T17:23:00.539Z,65.10
2023-01-17T17:25:27.359Z,65.10
2023-01-17T17:27:54.632Z,65.20
2023-01-17T17:30:21.408Z,65.10
2023-01-17T17:32:48.178Z,65.10
2023-01-17T17:35:14.949Z,65.10
2023-01-17T17:37:41.685Z,65.00
2023-01-17T17:40:08.796Z,65.00
2023-01-17T17:42:35.535Z,66.20
2023-01-17T17:45:02.403Z,66.60
2023-01-17T17:47:30.582Z,66.20
2023-01-17T17:49:57.420Z,65.80
2023-01-17T17:52:24.188Z,65.70
2023-01-17T17:54:50.939Z,65.70
2023-01-17T17:57:17.733Z,65.60
2023-01-17T17:59:44.480Z,65.60
2023-01-17T18:02:11.616Z,65.50
2023-01-17T18:04:38.493Z,65.50
2023-01-17T18:07:05.288Z,65.40
2023-01-17T18:09:32.068Z,65.40
2023-01-17T18:11:58.973Z,65.30
2023-01-17T18:14:25.682Z,65.30
2023-01-17T18:16:52.490Z,65.30
2023-01-17T18:19:23.964Z,65.40
2023-01-17T18:21:51.456Z,65.30
2023-01-17T18:24:20.063Z,65.30
2023-01-17T18:26:48.388Z,65.20
2023-01-17T18:29:15.935Z,65.20
2023-01-17T18:31:43.566Z,65.20
2023-01-17T18:34:11.905Z,65.20
2023-01-17T18:36:38.658Z,65.10
2023-01-17T18:39:10.244Z,65.10
2023-01-17T18:41:37.018Z,65.10
2023-01-17T18:44:04.993Z,65.10
2023-01-17T18:46:32.452Z,65.00
2023-01-17T18:48:59.467Z,64.90
2023-01-17T18:51:28.092Z,64.10
2023-01-17T18:53:54.939Z,64.10
2023-01-17T18:56:22.383Z,64.50
2023-01-17T18:58:49.751Z,64.50
2023-01-17T19:01:18.538Z,64.50
2023-01-17T19:03:46.423Z,64.50
2023-01-17T19:06:15.554Z,64.50
2023-01-17T19:08:42.884Z,64.50
2023-01-17T19:11:10.485Z,64.60
2023-01-17T19:13:37.895Z,64.70
2023-01-17T19:16:06.379Z,64.80
2023-01-17T19:18:33.335Z,64.80
2023-01-17T19:21:10.638Z,64.80
2023-01-17T19:23:37.596Z,64.70
2023-01-17T19:26:05.236Z,64.70
2023-01-17T19:28:33.188Z,64.70
2023-01-17T19:31:02.447Z,64.80
2023-01-17T19:33:29.213Z,64.90
2023-01-17T19:36:00.074Z,65.00
2023-01-17T19:38:27.429Z,65.10
2023-01-17T19:40:54.196Z,65.20
2023-01-17T19:43:21.385Z,65.40
2023-01-17T19:45:58.629Z,65.50
2023-01-17T19:48:26.004Z,65.60
2023-01-17T19:50:54.554Z,65.40
2023-01-17T19:53:24.121Z,64.30
2023-01-17T19:55:50.848Z,64.50
2023-01-17T19:58:17.562Z,64.70
2023-01-17T20:00:46.641Z,65.00
2023-01-17T20:03:13.610Z,65.20
2023-01-17T20:05:40.355Z,65.40
2023-01-17T20:08:07.099Z,65.60
2023-01-17T20:10:33.771Z,65.70
2023-01-17T20:13:00.564Z,65.70
2023-01-17T20:15:28.007Z,65.80
2023-01-17T20:17:55.054Z,65.90
2023-01-17T20:20:22.825Z,65.90
2023-01-17T20:22:49.741Z,65.90
2023-01-17T20:25:16.527Z,65.90
2023-01-17T20:27:44.465Z,66.00
2023-01-17T20:30:20.215Z,66.00
2023-01-17T20:32:47.857Z,66.00
2023-01-17T20:35:14.675Z,66.00
2023-01-17T20:37:41.408Z,66.10
2023-01-17T20:40:08.389Z,66.00
2023-01-17T20:42:37.978Z,66.00
2023-01-17T20:45:04.850Z,66.10
2023-01-17T20:47:31.589Z,66.10
2023-01-17T20:49:58.920Z,66.10
2023-01-17T20:52:25.648Z,65.90
2023-01-17T20:54:52.734Z,64.50
2023-01-17T20:57:19.469Z,64.70
2023-01-17T20:59:48.278Z,65.00
2023-01-17T21:02:15.259Z,65.20
2023-01-17T21:04:42.203Z,65.40
2023-01-17T21:07:08.915Z,65.60
2023-01-17T21:09:35.648Z,65.80
2023-01-17T21:12:02.401Z,65.90
2023-01-17T21:14:29.102Z,66.00
2023-01-17T21:16:55.926Z,66.00
2023-01-17T21:19:25.081Z,66.10
2023-01-17T21:21:51.822Z,66.10
2023-01-17T21:24:19.664Z,66.10
2023-01-17T21:26:46.750Z,66.10
2023-01-17T21:29:16.033Z,66.20
2023-01-17T21:31:43.056Z,66.20
2023-01-17T21:34:10.695Z,66.20
2023-01-17T21:36:38.606Z,66.30
2023-01-17T21:39:06.687Z,66.30
2023-01-17T21:41:34.824Z,66.30
2023-01-17T21:44:03.074Z,66.30
2023-01-17T21:46:30.003Z,66.30
2023-01-17T21:48:57.705Z,66.30
2023-01-17T21:51:45.015Z,66.40
2023-01-17T21:54:11.754Z,66.40
2023-01-17T21:56:57.298Z,65.00
2023-01-17T21:59:24.007Z,65.00
2023-01-17T22:01:50.710Z,65.40
2023-01-17T22:04:17.496Z,65.80
2023-01-17T22:06:44.219Z,66.00
2023-01-17T22:09:10.940Z,66.50
2023-01-17T22:11:37.695Z,66.60
2023-01-17T22:14:04.901Z,66.90
2023-01-17T22:16:31.601Z,67.40
2023-01-17T22:18:58.303Z,68.00
2023-01-17T22:21:26.260Z,68.20
2023-01-17T22:23:54.166Z,68.90
2023-01-17T22:26:21.764Z,68.90
2023-01-17T22:28:48.568Z,69.10
2023-01-17T22:31:16.726Z,69.30
2023-01-17T22:33:44.185Z,69.50
2023-01-17T22:36:13.652Z,69.50
2023-01-17T22:38:41.181Z,69.80
2023-01-17T22:41:13.159Z,70.00
2023-01-17T22:43:41.120Z,69.90
2023-01-17T22:46:09.929Z,69.80
2023-01-17T22:48:37.376Z,69.90
2023-01-17T22:51:05.301Z,69.70
2023-01-17T22:53:32.091Z,69.60
2023-01-17T22:56:00.304Z,70.00
2023-01-17T22:58:28.743Z,70.20
2023-01-17T23:01:14.495Z,70.10
2023-01-17T23:03:41.484Z,70.20
2023-01-17T23:06:09.869Z,70.10
2023-01-17T23:08:37.254Z,70.20
2023-01-17T23:11:29.873Z,70.00
2023-01-17T23:13:56.568Z,70.10
2023-01-17T23:16:42.151Z,70.20
2023-01-17T23:19:24.025Z,70.30
2023-01-17T23:22:13.730Z,70.20
2023-01-17T23:24:44.026Z,70.20
2023-01-17T23:27:30.668Z,70.20
2023-01-17T23:29:57.629Z,70.40
2023-01-17T23:32:24.635Z,70.50
2023-01-17T23:34:51.373Z,70.80
2023-01-17T23:37:18.098Z,71.90
2023-01-17T23:39:44.875Z,71.60
2023-01-17T23:42:30.381Z,71.30
2023-01-17T23:44:57.102Z,71.30
2023-01-17T23:47:23.837Z,71.30
2023-01-17T23:49:50.609Z,71.10
2023-01-17T23:52:17.373Z,71.20
2023-01-17T23:54:44.094Z,71.50
2023-01-17T23:57:10.840Z,71.80
2023-01-17T23:59:37.546Z,71.80
